Time;durP1;ratioP1;P1;durP2;ratioP2;P2;SDS_P1;SDS_P2;PMS_P1;PMS_P2;Temp;Humidity;BMP_temperature;BMP_pressure;BME280_temperature;BME280_humidity;BME280_pressure;Samples;Min_cycle;Max_cycle;Signal;HPM_P1;HPM_P2
2023/02/04 00:05:52;;;;;;;11.3;7.1;;;;;;;3.2;92.7;97950;;;;
2023/02/04 00:16:52;;;;;;;11.3;7.1;;;;;;;3.3;92.8;97960;;;;
2023/02/04 00:26:52;;;;;;;11.3;7.1;;;;;;;3.4;92.6;97950;;;;
2023/02/04 00:37:51;;;;;;;11.6;6;;;;;;;3.4;92.6;97960;;;;
2023/02/04 00:48:51;;;;;;;11.6;6;;;;;;;3.4;92.8;97950;;;;
2023/02/04 00:58:51;;;;;;;11.6;6;;;;;;;3.4;92.7;97940;;;;
2023/02/04 01:09:51;;;;;;;9.1;4.4;;;;;;;3.4;92.4;97930;;;;
2023/02/04 01:19:51;;;;;;;9.1;4.4;;;;;;;3.4;92.2;97910;;;;
2023/02/04 01:29:51;;;;;;;9.1;4.4;;;;;;;3.4;92.1;97900;;;;
2023/02/04 01:40:53;;;;;;;7;3.5;;;;;;;3.4;91.9;97890;;;;
2023/02/04 01:50:52;;;;;;;7;3.5;;;;;;;3.5;92;97880;;;;
2023/02/04 02:00:52;;;;;;;7;3.5;;;;;;;3.5;92.3;97880;;;;
2023/02/04 02:11:51;;;;;;;9.3;2.9;;;;;;;3.5;92.5;97880;;;;
2023/02/04 02:21:51;;;;;;;9.3;2.9;;;;;;;3.5;92.4;97890;;;;
2023/02/04 02:31:52;;;;;;;9.3;2.9;;;;;;;3.5;92.3;97920;;;;
2023/02/04 02:41:51;;;;;;;5.2;2;;;;;;;3.4;91.3;97920;;;;
2023/02/04 02:52:51;;;;;;;5.2;2;;;;;;;3.2;90.4;97940;;;;
2023/02/04 03:02:51;;;;;;;5.2;2;;;;;;;3.1;89.8;97930;;;;
2023/02/04 03:13:52;;;;;;;4.6;2.2;;;;;;;3;90.1;97960;;;;
2023/02/04 03:24:52;;;;;;;4.6;2.2;;;;;;;2.9;89.9;97970;;;;
2023/02/04 03:35:51;;;;;;;2.7;1.3;;;;;;;2.7;89.1;98000;;;;
2023/02/04 03:45:51;;;;;;;2.7;1.3;;;;;;;2.6;88.5;98020;;;;
2023/02/04 03:56:51;;;;;;;2.7;1.3;;;;;;;2.5;88.7;98050;;;;
2023/02/04 04:07:51;;;;;;;2.3;1.2;;;;;;;2.4;89.7;98080;;;;
2023/02/04 04:18:51;;;;;;;2.3;1.2;;;;;;;2.3;90.6;98110;;;;
2023/02/04 04:29:51;;;;;;;2.3;1.2;;;;;;;2.1;90.4;98140;;;;
2023/02/04 04:40:51;;;;;;;2.6;1.6;;;;;;;1.8;90.6;98170;;;;
2023/02/04 04:51:51;;;;;;;2.6;1.6;;;;;;;1.1;91.4;98270;;;;
2023/02/04 05:01:51;;;;;;;2.6;1.6;;;;;;;0.7;92.3;98330;;;;
2023/02/04 05:12:51;;;;;;;4;1.8;;;;;;;0.4;92.4;98400;;;;
2023/02/04 05:22:51;;;;;;;4;1.8;;;;;;;0.1;92.7;98480;;;;
2023/02/04 05:32:51;;;;;;;5.6;3.3;;;;;;;-0.4;93.3;98540;;;;
2023/02/04 05:42:51;;;;;;;5.6;3.3;;;;;;;-0.3;94.2;98600;;;;
2023/02/04 05:53:51;;;;;;;5.6;3.3;;;;;;;-0.5;93.9;98680;;;;
2023/02/04 06:03:51;;;;;;;5;2.5;;;;;;;-0.5;93.6;98740;;;;
2023/02/04 06:14:51;;;;;;;5;2.5;;;;;;;-0.5;93.3;98820;;;;
2023/02/04 06:25:51;;;;;;;5;2.5;;;;;;;-0.5;92.9;98870;;;;
2023/02/04 06:35:51;;;;;;;4.7;2.4;;;;;;;-0.6;92.5;98930;;;;
2023/02/04 06:46:51;;;;;;;4.7;2.4;;;;;;;-0.6;91.7;99000;;;;
2023/02/04 06:56:51;;;;;;;4.7;2.4;;;;;;;-0.6;89.3;99050;;;;
2023/02/04 07:07:51;;;;;;;3.8;2.5;;;;;;;-0.6;86.6;99110;;;;
2023/02/04 07:18:51;;;;;;;3.8;2.5;;;;;;;-0.6;85.4;99160;;;;
2023/02/04 07:29:51;;;;;;;3.8;2.5;;;;;;;-0.6;85.1;99220;;;;
2023/02/04 07:40:51;;;;;;;3.4;2.2;;;;;;;-0.6;84.2;99270;;;;
2023/02/04 07:51:51;;;;;;;3.4;2.2;;;;;;;-0.6;83.9;99310;;;;
2023/02/04 08:01:51;;;;;;;3.4;2.2;;;;;;;-0.5;83;99350;;;;
2023/02/04 08:11:51;;;;;;;5.3;2.2;;;;;;;-0.5;83.2;99380;;;;
2023/02/04 08:22:51;;;;;;;5.3;2.2;;;;;;;-0.4;82.1;99400;;;;
2023/02/04 08:33:51;;;;;;;4.7;2.7;;;;;;;-0.2;81.8;99440;;;;
2023/02/04 08:44:51;;;;;;;4.7;2.7;;;;;;;0;79.6;99470;;;;
2023/02/04 08:54:51;;;;;;;4.7;2.7;;;;;;;-0.1;78.5;99490;;;;
2023/02/04 09:05:51;;;;;;;5.6;2.6;;;;;;;-0.1;79.2;99530;;;;
2023/02/04 09:16:51;;;;;;;5.6;2.6;;;;;;;0.1;78.9;99550;;;;
2023/02/04 09:27:51;;;;;;;5.6;2.6;;;;;;;0;78.8;99560;;;;
2023/02/04 09:37:51;;;;;;;11.3;6.7;;;;;;;0.1;78.9;99580;;;;
2023/02/04 09:48:51;;;;;;;11.3;6.7;;;;;;;0.1;77.7;99600;;;;
2023/02/04 09:59:51;;;;;;;11.3;6.7;;;;;;;0.4;77.1;99630;;;;
2023/02/04 10:10:51;;;;;;;5.4;3.5;;;;;;;0.8;75.2;99630;;;;
2023/02/04 10:21:51;;;;;;;5.4;3.5;;;;;;;0.5;77.6;99670;;;;
2023/02/04 10:32:51;;;;;;;7.2;3.9;;;;;;;0.3;77.2;99680;;;;
2023/02/04 10:43:51;;;;;;;7.2;3.9;;;;;;;0.4;77.8;99700;;;;
2023/02/04 10:54:51;;;;;;;7.2;3.9;;;;;;;0.8;75.6;99710;;;;
2023/02/04 11:04:51;;;;;;;5.3;3.5;;;;;;;0.9;71.8;99730;;;;
2023/02/04 11:14:51;;;;;;;5.3;3.5;;;;;;;1;71.1;99740;;;;
2023/02/04 11:25:51;;;;;;;5.3;3.5;;;;;;;0.8;67.5;99730;;;;
2023/02/04 11:36:51;;;;;;;6.8;2.9;;;;;;;1.1;67.1;99730;;;;
2023/02/04 11:46:53;;;;;;;6.8;2.9;;;;;;;0.5;70.3;99750;;;;
2023/02/04 11:57:51;;;;;;;6.8;2.9;;;;;;;0.6;68.9;99760;;;;
2023/02/04 12:07:51;;;;;;;5.3;3;;;;;;;0.5;69.2;99790;;;;
2023/02/04 12:17:51;;;;;;;5.3;3;;;;;;;0.1;66.7;99810;;;;
2023/02/04 12:28:53;;;;;;;5.3;3;;;;;;;0.3;66;99820;;;;
2023/02/04 12:39:51;;;;;;;5.6;3.1;;;;;;;0.4;64.6;99830;;;;
2023/02/04 12:49:51;;;;;;;5.6;3.1;;;;;;;-0.1;63.9;99860;;;;
2023/02/04 13:00:51;;;;;;;5.6;3.1;;;;;;;-0.4;66;99880;;;;
2023/02/04 13:11:51;;;;;;;4.5;2.7;;;;;;;-0.6;66.5;99900;;;;
2023/02/04 13:22:51;;;;;;;4.5;2.7;;;;;;;-0.5;67.4;99910;;;;
2023/02/04 13:32:51;;;;;;;4.3;2;;;;;;;-0.4;67.3;99920;;;;
2023/02/04 13:43:51;;;;;;;4.3;2;;;;;;;-0.7;67.1;99910;;;;
2023/02/04 13:54:51;;;;;;;4.3;2;;;;;;;-0.4;67.1;99930;;;;
2023/02/04 14:04:51;;;;;;;3.3;1.6;;;;;;;-0.5;67.1;99930;;;;
2023/02/04 14:15:51;;;;;;;3.3;1.6;;;;;;;-0.3;66.8;99940;;;;
2023/02/04 14:25:51;;;;;;;3.3;1.6;;;;;;;0;67.3;99950;;;;
2023/02/04 14:35:53;;;;;;;4.1;2.1;;;;;;;0.1;68.9;99960;;;;
2023/02/04 14:46:51;;;;;;;4.1;2.1;;;;;;;-0.2;70.1;99970;;;;
2023/02/04 14:57:51;;;;;;;4.1;2.1;;;;;;;-0.5;71.5;99990;;;;
2023/02/04 15:07:51;;;;;;;4.8;2.5;;;;;;;-0.6;71.9;99990;;;;
2023/02/04 15:17:51;;;;;;;4.8;2.5;;;;;;;-0.7;71.9;100000;;;;
2023/02/04 15:28:51;;;;;;;4.8;2.5;;;;;;;-0.8;73.1;100020;;;;
2023/02/04 15:39:51;;;;;;;4.6;2.2;;;;;;;-0.9;72.6;100040;;;;
2023/02/04 15:49:51;;;;;;;4.6;2.2;;;;;;;-1;74.3;100040;;;;
2023/02/04 15:59:51;;;;;;;4.6;2.2;;;;;;;-1;75.1;100060;;;;
2023/02/04 16:10:52;;;;;;;5.5;3;;;;;;;-1;76.1;100070;;;;
2023/02/04 16:21:50;;;;;;;5.5;3;;;;;;;-1;76;100080;;;;
2023/02/04 16:31:52;;;;;;;7.3;3.7;;;;;;;-1;76.2;100080;;;;
2023/02/04 16:42:50;;;;;;;7.3;3.7;;;;;;;-1.1;76.5;100090;;;;
2023/02/04 16:52:50;;;;;;;7.3;3.7;;;;;;;-1.2;77.5;100100;;;;
2023/02/04 17:03:56;;;;;;;8.7;3.6;;;;;;;-1.3;78.2;100100;;;;
2023/02/04 17:14:51;;;;;;;8.7;3.6;;;;;;;-1.3;78.8;100100;;;;
2023/02/04 17:24:51;;;;;;;8.7;3.6;;;;;;;-1.3;78.9;100100;;;;
2023/02/04 17:35:51;;;;;;;9.1;5;;;;;;;-1.4;80;100100;;;;
2023/02/04 17:45:50;;;;;;;9.1;5;;;;;;;-1.4;81.6;100110;;;;
2023/02/04 17:55:51;;;;;;;9.1;5;;;;;;;-1.4;82.8;100110;;;;
2023/02/04 18:05:50;;;;;;;12;5.5;;;;;;;-1.4;83.5;100110;;;;
2023/02/04 18:16:51;;;;;;;12;5.5;;;;;;;-1.4;84.3;100110;;;;
2023/02/04 18:26:50;;;;;;;12;5.5;;;;;;;-1.4;85.8;100100;;;;
2023/02/04 18:37:50;;;;;;;14.8;8.5;;;;;;;-1.4;86.9;100110;;;;
2023/02/04 18:47:51;;;;;;;14.8;8.5;;;;;;;-1.3;87.2;100120;;;;
2023/02/04 18:58:50;;;;;;;14.8;8.5;;;;;;;-1.3;87.1;100120;;;;
2023/02/04 19:09:50;;;;;;;11.7;6.4;;;;;;;-1.3;87.5;100140;;;;
2023/02/04 19:19:50;;;;;;;11.7;6.4;;;;;;;-1.5;87.4;100140;;;;
2023/02/04 19:29:51;;;;;;;9.2;5.7;;;;;;;-1.5;86.8;100160;;;;
2023/02/04 19:40:51;;;;;;;9.2;5.7;;;;;;;-1.8;84.4;100180;;;;
2023/02/04 19:51:51;;;;;;;9.2;5.7;;;;;;;-1.8;83;100190;;;;
2023/02/04 20:02:50;;;;;;;7.2;3.4;;;;;;;-1.8;81.8;100200;;;;
2023/02/04 20:12:51;;;;;;;7.2;3.4;;;;;;;-1.8;80.8;100210;;;;
2023/02/04 20:22:51;;;;;;;7.2;3.4;;;;;;;-1.8;80.7;100210;;;;
2023/02/04 20:32:50;;;;;;;6.6;3.6;;;;;;;-1.9;80.2;100220;;;;
2023/02/04 20:43:50;;;;;;;6.6;3.6;;;;;;;-1.9;80.5;100230;;;;
2023/02/04 20:53:51;;;;;;;6.6;3.6;;;;;;;-1.8;80.6;100230;;;;
2023/02/04 21:03:50;;;;;;;6.4;3.2;;;;;;;-1.8;81.1;100230;;;;
2023/02/04 21:14:50;;;;;;;6.4;3.2;;;;;;;-1.8;82.1;100250;;;;
2023/02/04 21:24:50;;;;;;;6.4;3.2;;;;;;;-1.8;82.8;100250;;;;
2023/02/04 21:35:50;;;;;;;8.9;3.4;;;;;;;-1.8;83.1;100250;;;;
2023/02/04 21:45:50;;;;;;;8.9;3.4;;;;;;;-1.8;83.5;100260;;;;
2023/02/04 21:55:50;;;;;;;8.9;3.4;;;;;;;-1.7;83.7;100270;;;;
2023/02/04 22:06:50;;;;;;;5.4;3.6;;;;;;;-1.7;83.5;100270;;;;
2023/02/04 22:16:50;;;;;;;5.4;3.6;;;;;;;-1.8;84.5;100290;;;;
2023/02/04 22:26:50;;;;;;;5.4;3.6;;;;;;;-2.1;85.1;100300;;;;
2023/02/04 22:36:50;;;;;;;6.8;3.6;;;;;;;-2.4;86.1;100300;;;;
2023/02/04 22:47:50;;;;;;;6.8;3.6;;;;;;;-2.5;85.6;100310;;;;
2023/02/04 22:58:50;;;;;;;6.8;3.6;;;;;;;-2.7;84.7;100330;;;;
2023/02/04 23:08:52;;;;;;;4;2.4;;;;;;;-2.7;85.5;100340;;;;
2023/02/04 23:19:50;;;;;;;4;2.4;;;;;;;-2.8;86.9;100360;;;;
2023/02/04 23:29:50;;;;;;;5.5;3.2;;;;;;;-3;87.4;100370;;;;
2023/02/04 23:39:50;;;;;;;5.5;3.2;;;;;;;-3;88.2;100370;;;;
2023/02/04 23:50:50;;;;;;;5.5;3.2;;;;;;;-3.2;88.7;100390;;;;
